Time;durP1;ratioP1;P1;durP2;ratioP2;P2;SDS_P1;SDS_P2;PMS_P1;PMS_P2;Temp;Humidity;BMP_temperature;BMP_pressure;BME280_temperature;BME280_humidity;BME280_pressure;Samples;Min_cycle;Max_cycle;Signal;HPM_P1;HPM_P2
2022/01/21 00:00:57;;;;;;;71.97;35.37;;;;;;;2.32;70.26;99485.13;5114197;28;20943;-73
2022/01/21 00:03:24;;;;;;;90.87;43.90;;;;;;;2.34;69.88;99483.22;5115249;28;20440;-73
2022/01/21 00:05:51;;;;;;;95.53;42.73;;;;;;;2.27;68.27;99487.38;5114058;28;20436;-74
2022/01/21 00:08:19;;;;;;;78.50;41.37;;;;;;;2.08;69.46;99492.66;5114056;28;21012;-74
2022/01/21 00:10:45;;;;;;;82.00;40.83;;;;;;;2.09;69.21;99491.72;5114031;28;20813;-74
2022/01/21 00:13:19;;;;;;;86.20;41.23;;;;;;;2.08;69.43;99497.09;5113939;28;20433;-74
2022/01/21 00:15:46;;;;;;;92.63;42.77;;;;;;;2.00;69.92;99505.66;5114622;27;20428;-73
2022/01/21 00:18:13;;;;;;;88.30;43.40;;;;;;;1.84;69.80;99494.94;5113780;28;20467;-74
2022/01/21 00:31:38;;;;;;;88.17;42.83;;;;;;;1.64;71.23;99482.03;5114373;28;20415;-75
2022/01/21 00:34:05;;;;;;;92.73;44.50;;;;;;;1.59;71.34;99479.00;5113957;28;20529;-74
2022/01/21 00:36:32;;;;;;;95.40;44.07;;;;;;;1.52;72.06;99478.75;5114007;28;20883;-74
2022/01/21 00:39:01;;;;;;;88.50;41.90;;;;;;;1.55;72.37;99478.44;5113717;28;20490;-75
2022/01/21 00:41:31;;;;;;;95.43;43.30;;;;;;;1.66;72.04;99467.84;5113568;28;20454;-76
2022/01/21 00:43:57;;;;;;;96.33;45.70;;;;;;;1.74;71.90;99462.72;5113308;28;20810;-76
2022/01/21 00:46:24;;;;;;;92.90;44.13;;;;;;;1.80;71.52;99471.81;5113757;28;20497;-75
2022/01/21 00:48:51;;;;;;;87.53;44.20;;;;;;;1.84;71.76;99455.66;5113251;28;20440;-75
2022/01/21 00:51:17;;;;;;;93.10;44.30;;;;;;;1.89;71.30;99450.84;5113201;28;20906;-75
2022/01/21 00:53:44;;;;;;;94.67;44.33;;;;;;;1.78;71.28;99453.63;5113685;28;20485;-75
2022/01/21 00:56:12;;;;;;;82.57;42.47;;;;;;;1.64;71.43;99440.16;5113631;28;20444;-75
2022/01/21 00:58:39;;;;;;;88.63;42.73;;;;;;;1.60;71.75;99444.03;5113072;28;20458;-75
2022/01/21 01:01:06;;;;;;;87.10;40.57;;;;;;;1.67;72.03;99445.91;5113310;28;20436;-75
2022/01/21 01:03:33;;;;;;;91.03;43.53;;;;;;;1.75;71.56;99435.56;5113237;28;20444;-75
2022/01/21 01:05:59;;;;;;;93.70;42.73;;;;;;;1.81;71.87;99439.41;5113782;28;20521;-75
2022/01/21 01:08:26;;;;;;;89.47;41.47;;;;;;;1.88;71.01;99430.84;5113394;28;20486;-75
2022/01/21 01:11:15;;;;;;;80.03;40.47;;;;;;;1.81;70.96;99442.88;5113139;28;20497;-75
2022/01/21 01:21:56;;;;;;;85.17;39.13;;;;;;;1.77;71.56;99436.28;5113286;28;20396;-75
2022/01/21 01:29:53;;;;;;;79.67;38.27;;;;;;;1.77;71.79;99420.56;5112978;28;20789;-75
2022/01/21 01:32:19;;;;;;;73.90;37.43;;;;;;;1.79;72.41;99439.56;5112778;28;20432;-75
2022/01/21 01:34:46;;;;;;;65.23;37.93;;;;;;;1.83;72.90;99440.91;5112296;28;21059;-74
2022/01/21 01:37:25;;;;;;;76.27;36.10;;;;;;;1.81;72.64;99457.75;5112668;28;20544;-76
2022/01/21 01:40:01;;;;;;;65.33;33.53;;;;;;;1.79;73.41;99460.50;5112992;28;20435;-75
2022/01/21 01:50:49;;;;;;;53.27;27.23;;;;;;;1.63;73.21;99485.63;5112529;28;20399;-75
2022/01/21 01:53:17;;;;;;;47.33;25.30;;;;;;;1.61;73.22;99487.53;5113124;28;20486;-75
2022/01/21 01:55:44;;;;;;;46.37;25.30;;;;;;;1.59;73.20;99494.72;5112590;28;20567;-75
2022/01/21 01:58:12;;;;;;;40.00;22.60;;;;;;;1.58;73.38;99472.94;5112673;28;20533;-74
2022/01/21 02:00:41;;;;;;;42.00;22.50;;;;;;;1.39;73.38;99487.84;5112500;28;20451;-75
2022/01/21 02:03:09;;;;;;;35.90;20.60;;;;;;;1.32;74.23;99484.13;5112511;28;20428;-74
2022/01/21 02:05:36;;;;;;;34.90;21.73;;;;;;;1.08;74.69;99483.69;5112182;28;20440;-74
2022/01/21 02:08:03;;;;;;;33.87;21.10;;;;;;;1.00;75.58;99486.16;5112963;28;20444;-74
2022/01/21 02:10:30;;;;;;;32.80;21.53;;;;;;;0.87;76.45;99480.38;5112143;28;21007;-74
2022/01/21 02:13:04;;;;;;;38.20;22.43;;;;;;;0.73;77.42;99483.38;5112358;28;20440;-74
2022/01/21 02:15:34;;;;;;;42.33;23.23;;;;;;;0.59;77.94;99486.34;5112123;28;20436;-75
2022/01/21 02:23:32;;;;;;;44.47;25.63;;;;;;;0.44;79.69;99498.97;5112411;28;20469;-74
2022/01/21 02:25:59;;;;;;;50.63;27.27;;;;;;;0.47;79.65;99509.16;5112294;28;20509;-75
2022/01/21 02:28:25;;;;;;;47.37;25.70;;;;;;;0.49;79.37;99504.63;5111929;28;20509;-75
2022/01/21 02:30:54;;;;;;;44.77;26.40;;;;;;;0.43;80.34;99502.53;5111975;28;20560;-74
2022/01/21 02:33:21;;;;;;;40.33;25.43;;;;;;;0.36;80.40;99500.59;5111756;28;20440;-73
2022/01/21 02:35:47;;;;;;;39.43;26.20;;;;;;;0.42;80.95;99493.06;5112903;28;20424;-74
2022/01/21 02:38:15;;;;;;;52.00;26.63;;;;;;;0.63;79.96;99488.59;5111808;28;20472;-73
2022/01/21 02:40:43;;;;;;;41.07;24.93;;;;;;;0.78;79.78;99495.09;5112450;28;20432;-74
2022/01/21 02:43:10;;;;;;;42.20;26.07;;;;;;;0.94;79.13;99491.94;5111870;28;20428;-73
2022/01/21 02:45:39;;;;;;;47.67;26.73;;;;;;;1.13;78.32;99502.41;5112844;28;20489;-73
2022/01/21 02:48:08;;;;;;;43.63;25.87;;;;;;;1.30;77.59;99505.19;5112073;28;20439;-72
2022/01/21 02:50:35;;;;;;;44.60;23.37;;;;;;;1.33;77.34;99494.44;5111726;28;20440;-72
2022/01/21 02:53:11;;;;;;;41.07;23.40;;;;;;;1.31;76.28;99496.38;5112014;28;20434;-74
2022/01/21 02:55:38;;;;;;;39.47;22.70;;;;;;;1.49;76.31;99499.97;5115263;28;20439;-72
2022/01/21 02:58:06;;;;;;;34.33;22.17;;;;;;;1.67;75.50;99493.03;5115644;28;20531;-73
2022/01/21 03:00:33;;;;;;;36.10;22.17;;;;;;;1.77;74.40;99491.25;5115651;28;20440;-73
2022/01/21 03:03:03;;;;;;;32.73;22.00;;;;;;;1.76;73.87;99486.16;5115623;28;20436;-73
2022/01/21 03:05:30;;;;;;;38.87;22.70;;;;;;;1.87;73.50;99468.47;5115365;28;20508;-73
2022/01/21 03:07:57;;;;;;;34.47;21.73;;;;;;;1.95;73.00;99473.81;5115511;28;20428;-74
2022/01/21 03:10:26;;;;;;;35.30;21.73;;;;;;;2.00;72.95;99479.47;5115181;28;20944;-74
2022/01/21 03:12:52;;;;;;;37.07;22.00;;;;;;;1.94;72.97;99480.03;5114715;28;20447;-74
2022/01/21 03:15:21;;;;;;;44.77;22.10;;;;;;;1.99;72.78;99480.44;5115518;27;20493;-75
2022/01/21 03:17:48;;;;;;;43.57;22.10;;;;;;;1.92;73.01;99476.72;5115218;28;20471;-74
2022/01/21 03:20:15;;;;;;;35.37;21.53;;;;;;;1.97;73.04;99474.53;5115300;28;20803;-74
2022/01/21 03:22:41;;;;;;;41.37;23.67;;;;;;;1.96;72.62;99483.31;5115306;28;20440;-73
2022/01/21 03:25:09;;;;;;;31.87;21.43;;;;;;;1.95;72.79;99476.44;5115157;28;20432;-74
2022/01/21 03:27:36;;;;;;;35.33;22.97;;;;;;;1.89;74.21;99476.19;5115153;28;20501;-72
2022/01/21 03:30:08;;;;;;;40.27;22.67;;;;;;;1.94;74.07;99469.56;5115329;28;20436;-73
2022/01/21 03:32:36;;;;;;;38.60;23.40;;;;;;;2.03;73.58;99468.69;5115756;28;20481;-72
2022/01/21 03:35:03;;;;;;;42.27;22.60;;;;;;;2.00;74.28;99462.94;5114773;28;20517;-73
2022/01/21 03:37:30;;;;;;;37.83;22.90;;;;;;;1.95;74.61;99470.38;5114600;28;20529;-73
2022/01/21 03:39:57;;;;;;;40.00;26.67;;;;;;;1.98;75.00;99470.94;5115163;28;20504;-72
2022/01/21 03:42:23;;;;;;;34.23;20.43;;;;;;;1.94;74.30;99469.56;5114866;28;20444;-73
2022/01/21 03:44:50;;;;;;;31.13;20.60;;;;;;;1.92;73.87;99481.16;5115302;28;20521;-72
2022/01/21 03:47:17;;;;;;;28.63;18.90;;;;;;;1.91;73.04;99480.31;5114766;28;20504;-73
2022/01/21 03:49:53;;;;;;;28.60;18.13;;;;;;;2.09;71.87;99480.41;5114363;28;20448;-72
2022/01/21 03:52:20;;;;;;;24.27;16.60;;;;;;;2.23;70.90;99480.78;5114439;28;20801;-73
2022/01/21 03:54:47;;;;;;;29.93;17.10;;;;;;;2.43;70.59;99469.25;5114312;28;20810;-73
2022/01/21 03:57:14;;;;;;;28.17;17.57;;;;;;;2.66;69.77;99473.09;5114495;28;20448;-74
2022/01/21 03:59:40;;;;;;;34.57;19.10;;;;;;;2.84;69.90;99473.97;5114554;28;20501;-73
2022/01/21 04:02:07;;;;;;;32.00;18.40;;;;;;;3.01;69.83;99473.16;5114340;28;20448;-73
2022/01/21 04:04:34;;;;;;;29.10;19.23;;;;;;;3.18;68.29;99480.22;5114009;28;20946;-74
2022/01/21 04:07:03;;;;;;;33.23;20.20;;;;;;;3.34;68.17;99480.38;5114118;28;20497;-74
2022/01/21 04:09:30;;;;;;;31.13;19.03;;;;;;;3.42;67.14;99472.56;5114379;28;20436;-75
2022/01/21 04:11:57;;;;;;;32.43;18.77;;;;;;;3.49;66.93;99484.13;5114462;28;20436;-75
2022/01/21 04:14:24;;;;;;;31.00;20.80;;;;;;;3.55;66.74;99486.13;5113918;28;20493;-74
2022/01/21 04:16:50;;;;;;;38.97;21.50;;;;;;;3.64;66.17;99477.31;5114146;28;20531;-74
2022/01/21 04:19:17;;;;;;;32.17;19.63;;;;;;;3.74;65.95;99471.97;5113763;28;20218;-74
2022/01/21 04:21:44;;;;;;;30.17;19.27;;;;;;;3.75;65.01;99466.59;5113737;28;20190;-75
2022/01/21 04:24:12;;;;;;;27.50;17.60;;;;;;;3.85;64.84;99463.88;5113739;28;20880;-74
2022/01/21 04:26:39;;;;;;;28.80;18.07;;;;;;;3.96;64.49;99450.47;5113666;28;20190;-74
2022/01/21 04:29:06;;;;;;;32.23;17.07;;;;;;;4.05;63.78;99446.91;5114019;28;20203;-74
2022/01/21 04:31:33;;;;;;;34.97;18.13;;;;;;;4.11;63.35;99444.47;5113955;28;20187;-75
2022/01/21 04:34:00;;;;;;;32.00;17.83;;;;;;;4.18;64.18;99435.00;5113961;28;20290;-75
2022/01/21 04:36:26;;;;;;;25.40;17.07;;;;;;;4.25;63.08;99437.81;5113405;28;20194;-75
2022/01/21 04:38:55;;;;;;;34.00;18.27;;;;;;;4.31;62.78;99435.38;5113542;28;20228;-76
2022/01/21 04:41:41;;;;;;;34.03;17.80;;;;;;;4.28;62.19;99446.19;5113690;28;20212;-76
2022/01/21 04:49:34;;;;;;;25.60;16.03;;;;;;;4.37;60.92;99476.00;5113170;28;20195;-76
2022/01/21 04:52:04;;;;;;;35.23;16.23;;;;;;;4.36;61.80;99484.84;5113048;28;20294;-75
2022/01/21 04:54:31;;;;;;;30.67;16.73;;;;;;;4.26;61.95;99474.47;5113057;28;20732;-75
2022/01/21 04:56:59;;;;;;;22.37;14.80;;;;;;;4.34;61.64;99495.50;5114029;28;20222;-75
2022/01/21 04:59:26;;;;;;;32.90;14.57;;;;;;;4.34;62.34;99485.00;5113612;28;20222;-74
2022/01/21 05:01:53;;;;;;;22.47;13.23;;;;;;;4.45;62.36;99490.00;5113435;28;20484;-75
2022/01/21 05:04:20;;;;;;;24.47;12.87;;;;;;;4.55;61.74;99505.66;5113273;28;20278;-75
2022/01/21 05:06:48;;;;;;;18.47;13.07;;;;;;;4.58;62.49;99519.31;5113204;28;20191;-75
2022/01/21 05:09:16;;;;;;;19.27;13.27;;;;;;;4.46;63.05;99510.03;5112902;28;20658;-75
2022/01/21 05:11:43;;;;;;;17.40;13.53;;;;;;;4.49;63.88;99520.25;5112801;28;20637;-75
2022/01/21 05:14:17;;;;;;;33.50;19.77;;;;;;;4.60;62.54;99530.50;5113587;28;20195;-75
2022/01/21 05:16:46;;;;;;;29.70;20.43;;;;;;;4.67;62.77;99526.28;5113311;28;20191;-75
2022/01/21 05:19:15;;;;;;;39.60;21.03;;;;;;;4.70;62.42;99536.47;5112648;28;20302;-76
2022/01/21 05:21:42;;;;;;;42.63;23.20;;;;;;;4.71;62.32;99547.81;5112881;28;20190;-77
2022/01/21 05:24:09;;;;;;;38.13;23.30;;;;;;;4.75;63.15;99547.31;5112913;28;20187;-76
2022/01/21 05:26:37;;;;;;;39.20;24.00;;;;;;;4.74;63.00;99553.56;5112695;28;20191;-77
2022/01/21 05:29:04;;;;;;;40.87;24.00;;;;;;;4.72;63.63;99555.56;5113076;28;20205;-77
2022/01/21 05:31:32;;;;;;;39.67;23.00;;;;;;;4.77;63.86;99569.06;5112376;28;20217;-77
2022/01/21 05:33:59;;;;;;;34.20;23.17;;;;;;;4.81;63.91;99567.75;5113078;28;20226;-77
2022/01/21 05:36:27;;;;;;;39.80;23.13;;;;;;;4.85;63.77;99577.00;5112453;28;20198;-77
2022/01/21 05:38:55;;;;;;;43.07;24.47;;;;;;;4.86;64.34;99583.91;5113057;28;20227;-76
2022/01/21 05:41:23;;;;;;;39.80;22.67;;;;;;;4.86;63.93;99585.72;5112279;28;20191;-76
2022/01/21 05:43:58;;;;;;;34.13;22.77;;;;;;;4.86;64.33;99597.06;5113138;28;20196;-75
2022/01/21 05:46:30;;;;;;;35.70;21.97;;;;;;;4.87;65.02;99595.25;5112708;28;20265;-76
2022/01/21 05:48:58;;;;;;;41.53;22.87;;;;;;;4.91;65.23;99607.13;5112351;28;20274;-75
2022/01/21 05:51:25;;;;;;;38.27;22.90;;;;;;;4.85;66.19;99603.31;5112461;28;20191;-76
2022/01/21 05:53:52;;;;;;;41.07;24.73;;;;;;;4.79;67.34;99609.19;5112290;28;20247;-74
2022/01/21 05:56:23;;;;;;;39.30;24.97;;;;;;;4.79;69.06;99618.91;5112025;28;20758;-75
2022/01/21 05:58:50;;;;;;;42.37;26.00;;;;;;;4.70;70.66;99625.91;5112520;28;20206;-75
2022/01/21 06:01:17;;;;;;;39.37;24.20;;;;;;;4.62;73.55;99623.22;5112119;28;20247;-76
2022/01/21 06:03:44;;;;;;;43.87;23.50;;;;;;;4.66;74.23;99629.81;5112795;28;20612;-76
2022/01/21 06:06:12;;;;;;;36.23;22.40;;;;;;;4.56;75.56;99629.13;5112304;28;20194;-76
2022/01/21 06:08:39;;;;;;;39.87;23.60;;;;;;;4.48;77.04;99633.47;5112157;28;20267;-75
2022/01/21 06:11:06;;;;;;;43.13;25.23;;;;;;;4.48;78.56;99626.44;5111836;28;20730;-74
2022/01/21 06:13:34;;;;;;;38.47;25.50;;;;;;;4.50;78.42;99634.19;5112446;28;20190;-75
2022/01/21 06:16:01;;;;;;;44.47;27.30;;;;;;;4.52;79.26;99651.44;5111723;28;20194;-75
2022/01/21 06:18:28;;;;;;;43.93;26.27;;;;;;;4.53;79.66;99652.25;5111743;28;20304;-74
2022/01/21 06:20:54;;;;;;;43.83;26.33;;;;;;;4.45;81.13;99650.41;5111959;28;20623;-75
2022/01/21 06:23:22;;;;;;;45.60;24.87;;;;;;;4.33;82.70;99663.97;5112244;28;20240;-75
2022/01/21 06:25:49;;;;;;;39.40;25.23;;;;;;;4.28;83.41;99671.47;5111693;28;20659;-75
2022/01/21 06:28:16;;;;;;;43.37;27.43;;;;;;;4.25;83.58;99680.47;5112686;28;20195;-76
2022/01/21 06:30:42;;;;;;;44.50;27.33;;;;;;;4.27;85.38;99675.06;5116463;28;20275;-74
2022/01/21 06:33:10;;;;;;;40.80;26.60;;;;;;;4.25;86.02;99679.66;5112934;28;20191;-73
2022/01/21 06:35:36;;;;;;;37.33;24.13;;;;;;;4.03;87.61;99683.56;5115753;28;20558;-76
2022/01/21 06:38:03;;;;;;;38.57;27.17;;;;;;;3.94;89.58;99688.91;5115970;28;20190;-76
2022/01/21 06:40:31;;;;;;;46.07;28.43;;;;;;;3.77;92.01;99693.19;5115743;28;20500;-74
2022/01/21 06:43:02;;;;;;;44.57;28.00;;;;;;;3.69;94.41;99705.38;5115358;28;20492;-73
2022/01/21 06:45:29;;;;;;;49.60;29.30;;;;;;;3.65;96.14;99704.84;5115665;28;20943;-74
2022/01/21 06:47:58;;;;;;;30.03;21.03;;;;;;;3.43;98.55;99693.94;5115799;28;20439;-72
2022/01/21 06:50:24;;;;;;;24.93;16.93;;;;;;;3.56;100.00;99716.22;5115286;28;20442;-74
2022/01/21 06:52:51;;;;;;;28.03;20.27;;;;;;;3.57;100.00;99723.16;5115667;28;20194;-72
2022/01/21 06:55:18;;;;;;;38.37;25.83;;;;;;;3.52;100.00;99720.09;5115597;28;20440;-72
2022/01/21 06:57:46;;;;;;;28.40;17.23;;;;;;;3.43;100.00;99726.25;5115520;28;20439;-73
2022/01/21 07:00:18;;;;;;;13.53;12.03;;;;;;;3.32;100.00;99720.34;5115097;28;20916;-73
2022/01/21 07:02:45;;;;;;;7.77;7.23;;;;;;;3.23;100.00;99724.66;5115716;28;20273;-71
2022/01/21 07:05:12;;;;;;;9.80;8.90;;;;;;;3.17;100.00;99730.50;5108815;28;20235;-70
2022/01/21 07:07:39;;;;;;;8.17;7.43;;;;;;;3.03;100.00;99730.94;5114688;28;20808;-72
2022/01/21 07:10:08;;;;;;;8.33;7.63;;;;;;;2.88;100.00;99740.25;5115482;28;20247;-71
2022/01/21 07:12:35;;;;;;;9.90;9.10;;;;;;;2.64;100.00;99744.28;5109307;28;20440;-71
2022/01/21 07:15:04;;;;;;;9.63;8.63;;;;;;;2.59;100.00;99752.59;5114832;28;20198;-78
2022/01/21 07:17:30;;;;;;;9.67;8.77;;;;;;;2.46;100.00;99754.66;5114916;28;20432;-76
2022/01/21 07:19:57;;;;;;;8.90;8.20;;;;;;;2.47;100.00;99760.72;5115118;28;20908;-76
2022/01/21 07:22:24;;;;;;;6.90;6.40;;;;;;;2.42;100.00;99769.00;5115023;28;20448;-74
2022/01/21 07:24:51;;;;;;;5.83;5.33;;;;;;;2.32;100.00;99776.03;5115238;28;20441;-74
2022/01/21 07:27:17;;;;;;;5.77;5.37;;;;;;;2.32;100.00;99783.09;5114950;28;20440;-77
2022/01/21 07:29:44;;;;;;;6.43;5.93;;;;;;;2.25;100.00;99795.88;5094389;28;20506;-73
2022/01/21 07:32:12;;;;;;;5.47;5.17;;;;;;;2.10;100.00;99770.22;5094646;28;20440;-76
2022/01/21 07:34:39;;;;;;;5.67;5.27;;;;;;;2.23;100.00;99789.13;5094504;28;20526;-73
2022/01/21 07:37:06;;;;;;;7.87;6.40;;;;;;;2.24;100.00;99781.13;5112090;28;20524;-75
2022/01/21 07:39:32;;;;;;;7.17;6.50;;;;;;;2.21;100.00;99767.47;5113847;28;20481;-76
2022/01/21 07:41:59;;;;;;;12.33;9.30;;;;;;;2.32;100.00;99788.31;5114567;28;20497;-74
2022/01/21 07:44:26;;;;;;;10.27;9.37;;;;;;;2.34;100.00;99787.22;5113389;28;20851;-73
2022/01/21 07:46:53;;;;;;;14.27;12.77;;;;;;;2.34;100.00;99776.72;5114495;28;20869;-75
2022/01/21 07:49:21;;;;;;;12.50;10.00;;;;;;;2.55;100.00;99792.31;5113457;28;20460;-75
2022/01/21 07:51:48;;;;;;;19.80;13.27;;;;;;;2.72;100.00;99786.38;5114706;28;20432;-74
2022/01/21 07:54:15;;;;;;;22.10;14.77;;;;;;;2.78;100.00;99776.16;5113120;28;20455;-76
2022/01/21 07:56:42;;;;;;;16.50;12.13;;;;;;;2.95;100.00;99792.97;5114303;28;20432;-78
2022/01/21 07:59:11;;;;;;;11.83;10.73;;;;;;;3.01;100.00;99789.78;5113997;28;20881;-75
2022/01/21 08:01:38;;;;;;;9.10;8.37;;;;;;;2.90;100.00;99798.63;5114189;28;20489;-75
2022/01/21 08:04:06;;;;;;;10.43;9.30;;;;;;;2.82;100.00;99795.88;5114159;28;20190;-79
2022/01/21 08:06:34;;;;;;;7.67;6.97;;;;;;;2.82;100.00;99793.25;5113970;28;21072;-76
2022/01/21 08:09:01;;;;;;;7.90;7.10;;;;;;;2.78;100.00;99791.88;5113767;28;20440;-74
2022/01/21 08:11:28;;;;;;;6.57;6.07;;;;;;;2.82;100.00;99793.25;5113765;28;20424;-73
2022/01/21 08:13:55;;;;;;;5.43;5.03;;;;;;;2.84;100.00;99804.44;5113335;28;20447;-73
2022/01/21 08:16:21;;;;;;;4.17;3.97;;;;;;;2.84;100.00;99809.69;5114788;28;20478;-73
2022/01/21 08:18:49;;;;;;;5.30;4.93;;;;;;;2.78;100.00;99802.38;5113911;28;20824;-74
2022/01/21 08:21:18;;;;;;;4.07;3.73;;;;;;;2.84;100.00;99809.69;5113713;28;20437;-74
2022/01/21 08:23:47;;;;;;;6.13;5.53;;;;;;;2.89;100.00;99823.22;5111271;28;20462;-74
2022/01/21 08:26:14;;;;;;;5.30;4.90;;;;;;;2.83;100.00;99825.56;5113900;28;20920;-76
2022/01/21 08:28:40;;;;;;;46.00;16.67;;;;;;;3.10;100.00;99834.38;5113480;28;20494;-71
2022/01/21 08:31:07;;;;;;;3.93;3.73;;;;;;;3.01;100.00;99823.88;5113501;28;20444;-73
2022/01/21 08:33:34;;;;;;;3.00;2.87;;;;;;;2.94;100.00;99839.34;5112869;28;20467;-72
2022/01/21 08:36:01;;;;;;;3.30;3.10;;;;;;;2.90;100.00;99847.66;5113154;28;20497;-72
2022/01/21 08:38:27;;;;;;;3.30;3.00;;;;;;;2.80;100.00;99857.31;5113185;28;20432;-72
2022/01/21 08:40:55;;;;;;;3.40;3.20;;;;;;;2.76;100.00;99866.41;5113098;28;20424;-72
2022/01/21 08:43:22;;;;;;;3.53;3.23;;;;;;;2.67;100.00;99873.34;5109400;28;20436;-73
2022/01/21 08:45:49;;;;;;;4.20;4.00;;;;;;;2.62;100.00;99870.28;5112797;28;20492;-72
2022/01/21 08:48:16;;;;;;;3.93;3.73;;;;;;;2.61;100.00;99883.53;5109917;28;20948;-72
2022/01/21 08:50:42;;;;;;;3.50;3.30;;;;;;;2.59;100.00;99881.06;5112737;28;20440;-73
2022/01/21 08:53:35;;;;;;;3.70;3.50;;;;;;;2.61;100.00;99888.78;5111566;28;20441;-74
2022/01/21 08:55:58;;;;;;;5.30;4.93;;;;;;;2.56;100.00;99886.56;5109755;28;20420;-74
2022/01/21 08:58:25;;;;;;;3.73;3.53;;;;;;;2.36;100.00;99890.09;5112746;28;20525;-72
2022/01/21 09:00:52;;;;;;;3.60;3.40;;;;;;;2.36;100.00;99887.50;5110430;28;20495;-70
2022/01/21 09:03:18;;;;;;;4.53;4.23;;;;;;;2.40;100.00;99891.50;5112698;28;20955;-69
2022/01/21 09:05:49;;;;;;;5.97;5.47;;;;;;;2.42;100.00;99889.59;5112999;28;20496;-70
2022/01/21 09:08:15;;;;;;;4.93;4.63;;;;;;;2.35;100.00;99893.69;5113474;28;20443;-69
2022/01/21 09:10:42;;;;;;;3.73;3.43;;;;;;;2.34;100.00;99907.78;5112616;28;20444;-69
2022/01/21 09:13:10;;;;;;;5.53;5.07;;;;;;;2.32;100.00;99899.19;5112724;28;20951;-70
2022/01/21 09:15:38;;;;;;;7.33;5.47;;;;;;;2.36;100.00;99897.97;5112878;28;20440;-68
2022/01/21 09:18:05;;;;;;;5.33;4.90;;;;;;;2.42;100.00;99892.22;5112790;28;20448;-71
2022/01/21 09:20:33;;;;;;;4.77;4.47;;;;;;;2.40;100.00;99894.13;5111515;28;20471;-71
2022/01/21 09:23:00;;;;;;;3.20;3.00;;;;;;;2.38;100.00;99877.72;5112167;28;20441;-78
2022/01/21 09:25:26;;;;;;;4.60;4.30;;;;;;;2.48;100.00;99888.19;5112104;28;20939;-80
2022/01/21 09:27:53;;;;;;;4.20;3.90;;;;;;;2.62;99.03;99886.00;5112480;28;20428;-79
2022/01/21 09:30:22;;;;;;;3.43;3.23;;;;;;;2.68;97.56;99885.47;5112562;28;20493;-79
2022/01/21 09:32:48;;;;;;;3.80;3.60;;;;;;;2.82;96.53;99866.69;5112942;28;20436;-79
2022/01/21 09:35:15;;;;;;;3.33;3.00;;;;;;;2.86;95.84;99865.47;5112846;28;20464;-80
2022/01/21 09:37:42;;;;;;;3.10;2.90;;;;;;;2.93;93.64;99869.19;5112805;28;20428;-81
2022/01/21 09:40:10;;;;;;;3.83;2.97;;;;;;;2.99;93.15;99868.63;5112388;28;20475;-78
2022/01/21 09:42:37;;;;;;;3.00;2.90;;;;;;;2.95;93.04;99859.41;5113038;28;20513;-77
2022/01/21 09:45:09;;;;;;;3.63;3.43;;;;;;;3.09;92.53;99858.97;5112596;28;20435;-76
2022/01/21 09:47:46;;;;;;;4.97;2.97;;;;;;;3.07;91.53;99853.00;5112644;28;20927;-77
2022/01/21 09:50:14;;;;;;;3.20;2.90;;;;;;;3.17;90.10;99845.13;5112516;28;20225;-76
2022/01/21 09:52:43;;;;;;;4.20;3.70;;;;;;;3.25;88.36;99853.13;5112579;28;20493;-77
2022/01/21 09:55:10;;;;;;;3.53;3.20;;;;;;;3.22;87.40;99843.75;5112505;28;20247;-79
2022/01/21 09:57:37;;;;;;;4.83;4.43;;;;;;;3.32;87.92;99820.94;5112318;28;20477;-77
2022/01/21 10:00:05;;;;;;;4.60;4.30;;;;;;;3.25;86.61;99824.25;5112449;28;20214;-80
2022/01/21 10:02:32;;;;;;;3.30;3.10;;;;;;;3.22;84.94;99828.00;5112354;28;20459;-77
2022/01/21 10:05:01;;;;;;;3.47;3.17;;;;;;;3.28;84.93;99818.72;5116336;28;20496;-80
2022/01/21 10:07:30;;;;;;;4.40;4.10;;;;;;;3.36;84.16;99819.69;5117000;28;20464;-80
2022/01/21 10:10:00;;;;;;;3.20;3.00;;;;;;;3.38;84.26;99816.91;5116623;28;20436;-73
2022/01/21 10:12:27;;;;;;;3.50;3.27;;;;;;;3.36;83.99;99818.84;5117084;28;20420;-74
2022/01/21 10:14:54;;;;;;;3.40;3.17;;;;;;;3.28;83.16;99810.88;5116259;28;20865;-76
2022/01/21 10:17:21;;;;;;;3.47;3.27;;;;;;;3.32;81.82;99814.84;5117556;28;20190;-72
2022/01/21 10:19:51;;;;;;;3.43;3.23;;;;;;;3.34;81.09;99821.63;5117033;28;20521;-73
2022/01/21 10:22:25;;;;;;;2.80;2.60;;;;;;;3.48;80.38;99829.03;5116165;28;20420;-71
2022/01/21 10:24:58;;;;;;;3.20;3.03;;;;;;;3.52;78.51;99840.91;5116599;28;20793;-71
2022/01/21 10:27:25;;;;;;;2.93;2.83;;;;;;;3.52;79.41;99835.66;5116908;28;20428;-67
2022/01/21 10:29:52;;;;;;;4.00;3.70;;;;;;;3.61;80.32;99828.72;5115602;28;20487;-68
2022/01/21 10:32:33;;;;;;;2.87;2.77;;;;;;;3.50;82.51;99829.72;5116404;28;20198;-68
2022/01/21 10:35:00;;;;;;;3.10;2.90;;;;;;;3.41;83.09;99825.34;5116266;28;20636;-67
2022/01/21 10:37:32;;;;;;;4.37;3.97;;;;;;;3.41;84.81;99816.63;5115840;28;20468;-67
2022/01/21 10:40:01;;;;;;;2.70;2.60;;;;;;;3.30;84.57;99817.63;5115810;28;20717;-67
2022/01/21 10:42:29;;;;;;;3.73;3.47;;;;;;;3.36;84.22;99824.94;5115966;28;20975;-65
2022/01/21 10:44:56;;;;;;;3.13;2.93;;;;;;;3.25;83.60;99821.63;5115564;28;20467;-66
2022/01/21 10:47:26;;;;;;;3.17;3.00;;;;;;;3.27;82.23;99825.78;5115962;28;20190;-66
2022/01/21 10:50:02;;;;;;;3.73;3.53;;;;;;;3.29;82.29;99815.97;5115418;28;20531;-65
2022/01/21 10:52:36;;;;;;;5.40;4.90;;;;;;;3.29;81.90;99813.34;5115502;28;20194;-66
2022/01/21 10:55:05;;;;;;;4.47;4.17;;;;;;;3.27;81.68;99815.28;5115348;28;20431;-66
2022/01/21 10:57:32;;;;;;;5.30;4.77;;;;;;;3.31;79.69;99811.38;5115168;28;20436;-69
2022/01/21 11:00:02;;;;;;;7.07;4.47;;;;;;;3.20;79.20;99806.34;5115149;28;20896;-67
2022/01/21 11:02:35;;;;;;;4.07;3.77;;;;;;;3.26;79.00;99808.38;5115876;28;20440;-66
2022/01/21 11:05:06;;;;;;;2.70;2.50;;;;;;;3.29;78.72;99805.47;5116148;28;20428;-66
2022/01/21 11:07:57;;;;;;;2.87;2.67;;;;;;;3.37;78.13;99805.59;5115711;28;20281;-67
2022/01/21 11:10:45;;;;;;;3.40;2.70;;;;;;;3.26;77.11;99803.13;5115479;28;20516;-67
2022/01/21 11:13:42;;;;;;;3.53;3.33;;;;;;;3.27;78.37;99799.53;5115098;28;20938;-67
2022/01/21 11:16:20;;;;;;;4.00;3.70;;;;;;;3.22;76.88;99801.75;5113851;28;20454;-68
2022/01/21 11:19:06;;;;;;;3.97;3.70;;;;;;;3.24;76.13;99794.56;5114325;28;20431;-67
2022/01/21 11:21:41;;;;;;;3.83;3.53;;;;;;;3.27;76.84;99796.91;5113762;28;20210;-66
2022/01/21 11:24:12;;;;;;;5.33;3.20;;;;;;;3.32;76.64;99802.56;5113899;28;20439;-67
2022/01/21 11:26:39;;;;;;;4.17;3.87;;;;;;;3.39;75.82;99787.06;5114415;28;20492;-66
2022/01/21 11:29:07;;;;;;;4.87;4.00;;;;;;;3.38;77.00;99780.97;5114849;28;20191;-65
2022/01/21 11:31:34;;;;;;;3.50;3.20;;;;;;;3.30;75.52;99775.63;5110481;28;20259;-66
2022/01/21 11:34:01;;;;;;;4.87;4.47;;;;;;;3.47;74.10;99787.19;5097709;28;20231;-66
2022/01/21 11:36:28;;;;;;;9.07;6.57;;;;;;;3.55;74.42;99788.09;5111425;28;20509;-65
2022/01/21 11:38:56;;;;;;;7.87;5.77;;;;;;;3.40;73.62;99771.19;5113699;28;20783;-67
2022/01/21 11:41:25;;;;;;;6.57;4.57;;;;;;;3.54;73.59;99785.63;5112687;28;20214;-67
2022/01/21 11:43:59;;;;;;;5.80;5.30;;;;;;;3.56;73.91;99784.50;5114079;28;20435;-66
2022/01/21 11:46:39;;;;;;;7.93;4.30;;;;;;;3.54;72.44;99773.31;5114413;28;20428;-66
2022/01/21 11:49:09;;;;;;;5.63;4.77;;;;;;;3.67;72.07;99784.31;5112727;28;20183;-68
2022/01/21 11:51:37;;;;;;;8.47;5.37;;;;;;;3.72;73.98;99789.94;5107086;28;20579;-68
2022/01/21 11:54:06;;;;;;;6.67;6.07;;;;;;;3.63;74.13;99782.94;5093739;28;20490;-65
2022/01/21 11:56:46;;;;;;;4.60;4.20;;;;;;;3.57;74.25;99778.28;5094120;28;20252;-65
2022/01/21 11:59:22;;;;;;;6.33;5.20;;;;;;;3.57;74.36;99765.16;5094731;28;20421;-65
2022/01/21 12:01:50;;;;;;;5.10;4.60;;;;;;;3.58;74.76;99758.94;5094077;28;20203;-66
2022/01/21 12:04:39;;;;;;;6.60;5.27;;;;;;;3.66;73.07;99763.44;5093789;28;20195;-67
2022/01/21 12:07:55;;;;;;;4.27;3.80;;;;;;;3.55;71.62;99767.09;5093626;28;20191;-65
2022/01/21 12:10:36;;;;;;;4.30;4.00;;;;;;;3.60;70.70;99779.81;5094246;28;20495;-66
2022/01/21 12:13:16;;;;;;;4.93;4.13;;;;;;;3.63;71.04;99777.69;5093667;28;20634;-66
2022/01/21 12:21:57;;;;;;;4.47;4.17;;;;;;;3.59;67.99;99771.09;5076437;28;21040;-68
2022/01/21 12:24:54;;;;;;;4.77;4.27;;;;;;;3.62;67.89;99767.34;5093012;28;20213;-69
2022/01/21 12:27:25;;;;;;;4.27;3.90;;;;;;;3.65;69.00;99783.66;5091658;28;20184;-69